sensor_id;sensor_type;location;lat;lon;timestamp;P1;durP1;ratioP1;P2;durP2;ratioP2
44564;SDS011;30275;51.822;-0.326;2023-04-24T00:00:45;27.45;;;19.10;;
44564;SDS011;30275;51.822;-0.326;2023-04-24T00:03:11;26.55;;;17.35;;
44564;SDS011;30275;51.822;-0.326;2023-04-24T00:05:37;27.17;;;17.90;;
44564;SDS011;30275;51.822;-0.326;2023-04-24T00:08:05;26.50;;;18.08;;
44564;SDS011;30275;51.822;-0.326;2023-04-24T00:10:31;26.50;;;17.23;;
44564;SDS011;30275;51.822;-0.326;2023-04-24T00:12:56;22.83;;;14.55;;
44564;SDS011;30275;51.822;-0.326;2023-04-24T00:15:22;25.83;;;15.93;;
44564;SDS011;30275;51.822;-0.326;2023-04-24T00:17:48;23.67;;;16.92;;
44564;SDS011;30275;51.822;-0.326;2023-04-24T00:20:13;20.98;;;14.65;;
44564;SDS011;30275;51.822;-0.326;2023-04-24T00:22:39;21.35;;;14.27;;
44564;SDS011;30275;51.822;-0.326;2023-04-24T00:25:05;24.13;;;14.93;;
44564;SDS011;30275;51.822;-0.326;2023-04-24T00:27:31;23.23;;;14.32;;
44564;SDS011;30275;51.822;-0.326;2023-04-24T00:29:57;21.08;;;14.93;;
44564;SDS011;30275;51.822;-0.326;2023-04-24T00:32:22;21.20;;;13.82;;
44564;SDS011;30275;51.822;-0.326;2023-04-24T00:34:48;21.88;;;14.88;;
44564;SDS011;30275;51.822;-0.326;2023-04-24T00:37:13;25.90;;;15.90;;
44564;SDS011;30275;51.822;-0.326;2023-04-24T00:39:39;21.42;;;14.70;;
44564;SDS011;30275;51.822;-0.326;2023-04-24T00:42:05;19.85;;;13.85;;
44564;SDS011;30275;51.822;-0.326;2023-04-24T00:44:32;22.50;;;14.68;;
44564;SDS011;30275;51.822;-0.326;2023-04-24T00:46:59;21.20;;;15.38;;
44564;SDS011;30275;51.822;-0.326;2023-04-24T00:49:25;21.77;;;14.90;;
44564;SDS011;30275;51.822;-0.326;2023-04-24T00:51:51;24.48;;;15.57;;
44564;SDS011;30275;51.822;-0.326;2023-04-24T00:54:18;22.65;;;15.32;;
44564;SDS011;30275;51.822;-0.326;2023-04-24T00:56:44;20.25;;;14.15;;
44564;SDS011;30275;51.822;-0.326;2023-04-24T00:59:11;22.73;;;15.82;;
44564;SDS011;30275;51.822;-0.326;2023-04-24T01:01:38;22.08;;;15.57;;
44564;SDS011;30275;51.822;-0.326;2023-04-24T01:04:07;23.30;;;15.63;;
44564;SDS011;30275;51.822;-0.326;2023-04-24T01:06:35;20.48;;;14.43;;
44564;SDS011;30275;51.822;-0.326;2023-04-24T01:09:04;25.40;;;15.85;;
44564;SDS011;30275;51.822;-0.326;2023-04-24T01:11:30;23.48;;;15.82;;
44564;SDS011;30275;51.822;-0.326;2023-04-24T01:13:56;24.65;;;15.73;;
44564;SDS011;30275;51.822;-0.326;2023-04-24T01:16:21;21.40;;;16.05;;
44564;SDS011;30275;51.822;-0.326;2023-04-24T01:18:47;24.02;;;15.57;;
44564;SDS011;30275;51.822;-0.326;2023-04-24T01:21:14;20.33;;;14.90;;
44564;SDS011;30275;51.822;-0.326;2023-04-24T01:23:41;22.65;;;16.13;;
44564;SDS011;30275;51.822;-0.326;2023-04-24T01:26:08;23.00;;;15.48;;
44564;SDS011;30275;51.822;-0.326;2023-04-24T01:28:34;23.98;;;16.23;;
44564;SDS011;30275;51.822;-0.326;2023-04-24T01:30:59;21.92;;;15.60;;
44564;SDS011;30275;51.822;-0.326;2023-04-24T01:33:25;24.88;;;16.55;;
44564;SDS011;30275;51.822;-0.326;2023-04-24T01:35:51;23.48;;;15.52;;
44564;SDS011;30275;51.822;-0.326;2023-04-24T01:38:17;22.08;;;15.48;;
44564;SDS011;30275;51.822;-0.326;2023-04-24T01:40:43;23.58;;;15.10;;
44564;SDS011;30275;51.822;-0.326;2023-04-24T01:43:09;21.95;;;14.90;;
44564;SDS011;30275;51.822;-0.326;2023-04-24T01:45:34;21.55;;;14.77;;
44564;SDS011;30275;51.822;-0.326;2023-04-24T01:48:00;21.30;;;14.95;;
44564;SDS011;30275;51.822;-0.326;2023-04-24T01:50:26;26.88;;;14.55;;
44564;SDS011;30275;51.822;-0.326;2023-04-24T01:52:51;23.02;;;14.02;;
44564;SDS011;30275;51.822;-0.326;2023-04-24T01:55:17;27.77;;;14.90;;
44564;SDS011;30275;51.822;-0.326;2023-04-24T01:57:43;21.63;;;13.23;;
44564;SDS011;30275;51.822;-0.326;2023-04-24T02:00:08;25.40;;;14.32;;
44564;SDS011;30275;51.822;-0.326;2023-04-24T02:02:37;20.98;;;13.68;;
44564;SDS011;30275;51.822;-0.326;2023-04-24T02:05:05;23.10;;;15.05;;
44564;SDS011;30275;51.822;-0.326;2023-04-24T02:07:32;28.73;;;16.05;;
44564;SDS011;30275;51.822;-0.326;2023-04-24T02:09:57;26.52;;;15.80;;
44564;SDS011;30275;51.822;-0.326;2023-04-24T02:12:23;20.23;;;13.50;;
44564;SDS011;30275;51.822;-0.326;2023-04-24T02:14:49;18.30;;;12.20;;
44564;SDS011;30275;51.822;-0.326;2023-04-24T02:17:15;19.08;;;11.77;;
44564;SDS011;30275;51.822;-0.326;2023-04-24T02:19:41;19.20;;;10.73;;
44564;SDS011;30275;51.822;-0.326;2023-04-24T02:22:06;14.40;;;8.77;;
44564;SDS011;30275;51.822;-0.326;2023-04-24T02:24:32;18.90;;;8.90;;
44564;SDS011;30275;51.822;-0.326;2023-04-24T02:26:58;14.90;;;8.80;;
44564;SDS011;30275;51.822;-0.326;2023-04-24T02:29:23;14.38;;;8.73;;
44564;SDS011;30275;51.822;-0.326;2023-04-24T02:31:49;18.08;;;9.95;;
44564;SDS011;30275;51.822;-0.326;2023-04-24T02:34:15;25.70;;;12.82;;
44564;SDS011;30275;51.822;-0.326;2023-04-24T02:36:41;21.05;;;11.88;;
44564;SDS011;30275;51.822;-0.326;2023-04-24T02:39:06;17.48;;;10.20;;
44564;SDS011;30275;51.822;-0.326;2023-04-24T02:41:32;18.17;;;9.80;;
44564;SDS011;30275;51.822;-0.326;2023-04-24T02:43:58;15.48;;;9.65;;
44564;SDS011;30275;51.822;-0.326;2023-04-24T02:46:24;15.32;;;9.45;;
44564;SDS011;30275;51.822;-0.326;2023-04-24T02:48:49;21.58;;;8.95;;
44564;SDS011;30275;51.822;-0.326;2023-04-24T02:51:15;19.52;;;8.80;;
44564;SDS011;30275;51.822;-0.326;2023-04-24T02:53:40;15.82;;;9.55;;
44564;SDS011;30275;51.822;-0.326;2023-04-24T02:56:06;15.73;;;8.75;;
44564;SDS011;30275;51.822;-0.326;2023-04-24T02:58:32;19.38;;;9.32;;
44564;SDS011;30275;51.822;-0.326;2023-04-24T03:00:57;17.40;;;9.65;;
44564;SDS011;30275;51.822;-0.326;2023-04-24T03:03:23;17.13;;;10.30;;
44564;SDS011;30275;51.822;-0.326;2023-04-24T03:05:49;19.95;;;9.27;;
44564;SDS011;30275;51.822;-0.326;2023-04-24T03:08:15;16.90;;;9.18;;
44564;SDS011;30275;51.822;-0.326;2023-04-24T03:10:40;16.23;;;9.65;;
44564;SDS011;30275;51.822;-0.326;2023-04-24T03:13:06;19.30;;;9.35;;
44564;SDS011;30275;51.822;-0.326;2023-04-24T03:15:32;14.65;;;8.63;;
44564;SDS011;30275;51.822;-0.326;2023-04-24T03:17:57;15.05;;;8.55;;
44564;SDS011;30275;51.822;-0.326;2023-04-24T03:20:23;16.13;;;9.07;;
44564;SDS011;30275;51.822;-0.326;2023-04-24T03:22:49;18.75;;;8.65;;
44564;SDS011;30275;51.822;-0.326;2023-04-24T03:25:14;14.68;;;8.20;;
44564;SDS011;30275;51.822;-0.326;2023-04-24T03:27:40;16.45;;;9.40;;
44564;SDS011;30275;51.822;-0.326;2023-04-24T03:30:06;14.27;;;8.75;;
44564;SDS011;30275;51.822;-0.326;2023-04-24T03:32:32;13.02;;;8.57;;
44564;SDS011;30275;51.822;-0.326;2023-04-24T03:34:58;15.35;;;8.20;;
44564;SDS011;30275;51.822;-0.326;2023-04-24T03:37:24;16.23;;;8.55;;
44564;SDS011;30275;51.822;-0.326;2023-04-24T03:39:50;18.67;;;7.93;;
44564;SDS011;30275;51.822;-0.326;2023-04-24T03:42:16;12.88;;;6.75;;
44564;SDS011;30275;51.822;-0.326;2023-04-24T03:44:41;13.98;;;5.97;;
44564;SDS011;30275;51.822;-0.326;2023-04-24T03:47:07;11.45;;;6.78;;
44564;SDS011;30275;51.822;-0.326;2023-04-24T03:49:32;13.35;;;6.38;;
44564;SDS011;30275;51.822;-0.326;2023-04-24T03:51:58;14.75;;;5.63;;
44564;SDS011;30275;51.822;-0.326;2023-04-24T03:54:23;9.65;;;5.07;;
44564;SDS011;30275;51.822;-0.326;2023-04-24T03:56:49;12.00;;;5.32;;
44564;SDS011;30275;51.822;-0.326;2023-04-24T03:59:15;13.43;;;4.63;;
44564;SDS011;30275;51.822;-0.326;2023-04-24T04:01:40;10.60;;;5.28;;
44564;SDS011;30275;51.822;-0.326;2023-04-24T04:04:06;11.70;;;5.03;;
44564;SDS011;30275;51.822;-0.326;2023-04-24T04:06:32;15.43;;;5.63;;
44564;SDS011;30275;51.822;-0.326;2023-04-24T04:08:58;8.30;;;5.28;;
44564;SDS011;30275;51.822;-0.326;2023-04-24T04:11:24;13.43;;;5.10;;
44564;SDS011;30275;51.822;-0.326;2023-04-24T04:13:50;9.80;;;5.15;;
44564;SDS011;30275;51.822;-0.326;2023-04-24T04:16:16;11.00;;;4.82;;
44564;SDS011;30275;51.822;-0.326;2023-04-24T04:18:42;11.07;;;5.82;;
44564;SDS011;30275;51.822;-0.326;2023-04-24T04:21:08;9.20;;;5.05;;
44564;SDS011;30275;51.822;-0.326;2023-04-24T04:23:34;12.18;;;5.95;;
44564;SDS011;30275;51.822;-0.326;2023-04-24T04:26:00;16.05;;;6.55;;
44564;SDS011;30275;51.822;-0.326;2023-04-24T04:28:26;16.08;;;6.70;;
44564;SDS011;30275;51.822;-0.326;2023-04-24T04:30:51;12.05;;;6.50;;
44564;SDS011;30275;51.822;-0.326;2023-04-24T04:33:20;15.85;;;6.93;;
44564;SDS011;30275;51.822;-0.326;2023-04-24T04:35:46;10.88;;;6.38;;
44564;SDS011;30275;51.822;-0.326;2023-04-24T04:38:17;14.20;;;5.88;;
44564;SDS011;30275;51.822;-0.326;2023-04-24T04:40:45;9.68;;;4.75;;
44564;SDS011;30275;51.822;-0.326;2023-04-24T04:43:11;10.13;;;5.20;;
44564;SDS011;30275;51.822;-0.326;2023-04-24T04:45:38;9.85;;;5.18;;
44564;SDS011;30275;51.822;-0.326;2023-04-24T04:48:05;9.75;;;4.85;;
44564;SDS011;30275;51.822;-0.326;2023-04-24T04:50:32;10.77;;;4.47;;
44564;SDS011;30275;51.822;-0.326;2023-04-24T04:52:58;9.93;;;4.15;;
44564;SDS011;30275;51.822;-0.326;2023-04-24T04:55:24;14.45;;;4.55;;
44564;SDS011;30275;51.822;-0.326;2023-04-24T04:57:50;6.50;;;3.80;;
44564;SDS011;30275;51.822;-0.326;2023-04-24T05:00:16;11.52;;;4.68;;
44564;SDS011;30275;51.822;-0.326;2023-04-24T05:02:42;11.45;;;4.65;;
44564;SDS011;30275;51.822;-0.326;2023-04-24T05:05:08;9.95;;;4.63;;
44564;SDS011;30275;51.822;-0.326;2023-04-24T05:07:35;7.70;;;3.85;;
44564;SDS011;30275;51.822;-0.326;2023-04-24T05:10:01;14.38;;;4.45;;
44564;SDS011;30275;51.822;-0.326;2023-04-24T05:12:26;9.45;;;3.90;;
44564;SDS011;30275;51.822;-0.326;2023-04-24T05:14:52;15.40;;;4.40;;
44564;SDS011;30275;51.822;-0.326;2023-04-24T05:17:18;11.88;;;3.67;;
44564;SDS011;30275;51.822;-0.326;2023-04-24T05:19:43;10.98;;;4.43;;
44564;SDS011;30275;51.822;-0.326;2023-04-24T05:22:09;9.48;;;4.28;;
44564;SDS011;30275;51.822;-0.326;2023-04-24T05:24:36;12.73;;;4.85;;
44564;SDS011;30275;51.822;-0.326;2023-04-24T05:27:02;7.25;;;3.60;;
44564;SDS011;30275;51.822;-0.326;2023-04-24T05:29:29;9.02;;;3.85;;
44564;SDS011;30275;51.822;-0.326;2023-04-24T05:31:58;6.45;;;3.42;;
44564;SDS011;30275;51.822;-0.326;2023-04-24T05:34:25;7.88;;;4.22;;
44564;SDS011;30275;51.822;-0.326;2023-04-24T05:36:50;9.75;;;3.90;;
44564;SDS011;30275;51.822;-0.326;2023-04-24T05:39:16;9.73;;;3.63;;
44564;SDS011;30275;51.822;-0.326;2023-04-24T05:41:42;7.38;;;3.50;;
44564;SDS011;30275;51.822;-0.326;2023-04-24T05:44:08;10.88;;;3.92;;
44564;SDS011;30275;51.822;-0.326;2023-04-24T05:46:34;10.07;;;3.65;;
44564;SDS011;30275;51.822;-0.326;2023-04-24T05:49:00;6.43;;;3.17;;
44564;SDS011;30275;51.822;-0.326;2023-04-24T05:51:26;10.43;;;4.10;;
44564;SDS011;30275;51.822;-0.326;2023-04-24T05:53:51;13.20;;;3.28;;
44564;SDS011;30275;51.822;-0.326;2023-04-24T05:56:17;9.13;;;3.42;;
44564;SDS011;30275;51.822;-0.326;2023-04-24T05:58:43;9.63;;;2.70;;
44564;SDS011;30275;51.822;-0.326;2023-04-24T06:01:10;10.15;;;2.88;;
44564;SDS011;30275;51.822;-0.326;2023-04-24T06:03:35;8.98;;;3.13;;
44564;SDS011;30275;51.822;-0.326;2023-04-24T06:06:01;9.02;;;4.10;;
44564;SDS011;30275;51.822;-0.326;2023-04-24T06:08:26;9.88;;;3.03;;
44564;SDS011;30275;51.822;-0.326;2023-04-24T06:10:52;10.15;;;3.55;;
44564;SDS011;30275;51.822;-0.326;2023-04-24T06:13:17;5.68;;;3.05;;
44564;SDS011;30275;51.822;-0.326;2023-04-24T06:15:43;9.98;;;3.53;;
44564;SDS011;30275;51.822;-0.326;2023-04-24T06:18:09;7.95;;;3.95;;
44564;SDS011;30275;51.822;-0.326;2023-04-24T06:20:37;9.18;;;4.00;;
44564;SDS011;30275;51.822;-0.326;2023-04-24T06:23:03;11.48;;;4.68;;
44564;SDS011;30275;51.822;-0.326;2023-04-24T06:25:29;12.43;;;4.47;;
44564;SDS011;30275;51.822;-0.326;2023-04-24T06:27:55;12.18;;;4.85;;
44564;SDS011;30275;51.822;-0.326;2023-04-24T06:30:21;9.32;;;4.43;;
44564;SDS011;30275;51.822;-0.326;2023-04-24T06:32:47;13.77;;;5.10;;
44564;SDS011;30275;51.822;-0.326;2023-04-24T06:35:12;10.90;;;4.60;;
44564;SDS011;30275;51.822;-0.326;2023-04-24T06:37:39;8.80;;;4.30;;
44564;SDS011;30275;51.822;-0.326;2023-04-24T06:40:06;10.07;;;4.53;;
44564;SDS011;30275;51.822;-0.326;2023-04-24T06:42:32;12.27;;;4.60;;
44564;SDS011;30275;51.822;-0.326;2023-04-24T06:44:58;6.95;;;4.28;;
44564;SDS011;30275;51.822;-0.326;2023-04-24T06:47:24;7.55;;;3.60;;
44564;SDS011;30275;51.822;-0.326;2023-04-24T06:49:49;6.00;;;2.75;;
44564;SDS011;30275;51.822;-0.326;2023-04-24T06:52:17;7.63;;;3.33;;
44564;SDS011;30275;51.822;-0.326;2023-04-24T06:54:43;8.20;;;2.72;;
44564;SDS011;30275;51.822;-0.326;2023-04-24T06:57:08;9.45;;;3.15;;
44564;SDS011;30275;51.822;-0.326;2023-04-24T06:59:35;8.65;;;2.85;;
44564;SDS011;30275;51.822;-0.326;2023-04-24T07:02:01;9.05;;;2.47;;
44564;SDS011;30275;51.822;-0.326;2023-04-24T07:04:26;4.00;;;2.10;;
44564;SDS011;30275;51.822;-0.326;2023-04-24T07:06:53;8.25;;;2.83;;
44564;SDS011;30275;51.822;-0.326;2023-04-24T07:09:22;9.25;;;2.90;;
44564;SDS011;30275;51.822;-0.326;2023-04-24T07:11:50;6.20;;;2.60;;
44564;SDS011;30275;51.822;-0.326;2023-04-24T07:14:16;6.95;;;2.50;;
44564;SDS011;30275;51.822;-0.326;2023-04-24T07:16:42;4.45;;;1.92;;
44564;SDS011;30275;51.822;-0.326;2023-04-24T07:19:08;5.85;;;2.63;;
44564;SDS011;30275;51.822;-0.326;2023-04-24T07:21:34;8.45;;;2.72;;
44564;SDS011;30275;51.822;-0.326;2023-04-24T07:24:00;3.33;;;1.92;;
44564;SDS011;30275;51.822;-0.326;2023-04-24T07:26:26;3.25;;;1.80;;
44564;SDS011;30275;51.822;-0.326;2023-04-24T07:28:53;5.90;;;2.80;;
44564;SDS011;30275;51.822;-0.326;2023-04-24T07:31:18;6.32;;;3.13;;
44564;SDS011;30275;51.822;-0.326;2023-04-24T07:33:44;7.00;;;2.33;;
44564;SDS011;30275;51.822;-0.326;2023-04-24T07:36:10;7.88;;;2.20;;
44564;SDS011;30275;51.822;-0.326;2023-04-24T07:38:40;7.95;;;2.33;;
44564;SDS011;30275;51.822;-0.326;2023-04-24T07:41:07;4.95;;;2.03;;
44564;SDS011;30275;51.822;-0.326;2023-04-24T07:43:32;3.92;;;1.60;;
44564;SDS011;30275;51.822;-0.326;2023-04-24T07:45:58;2.33;;;1.60;;
44564;SDS011;30275;51.822;-0.326;2023-04-24T07:48:24;4.57;;;1.95;;
44564;SDS011;30275;51.822;-0.326;2023-04-24T07:50:51;7.70;;;2.20;;
44564;SDS011;30275;51.822;-0.326;2023-04-24T07:53:17;5.28;;;1.98;;
44564;SDS011;30275;51.822;-0.326;2023-04-24T07:55:43;3.10;;;1.67;;
44564;SDS011;30275;51.822;-0.326;2023-04-24T07:58:08;4.63;;;2.00;;
44564;SDS011;30275;51.822;-0.326;2023-04-24T08:00:34;4.40;;;1.60;;
44564;SDS011;30275;51.822;-0.326;2023-04-24T08:03:00;3.20;;;1.63;;
44564;SDS011;30275;51.822;-0.326;2023-04-24T08:05:25;6.55;;;1.52;;
44564;SDS011;30275;51.822;-0.326;2023-04-24T08:07:52;4.90;;;1.60;;
44564;SDS011;30275;51.822;-0.326;2023-04-24T08:10:18;6.03;;;1.92;;
44564;SDS011;30275;51.822;-0.326;2023-04-24T08:12:43;4.40;;;1.65;;
44564;SDS011;30275;51.822;-0.326;2023-04-24T08:15:09;4.60;;;1.70;;
44564;SDS011;30275;51.822;-0.326;2023-04-24T08:17:35;3.42;;;1.50;;
44564;SDS011;30275;51.822;-0.326;2023-04-24T08:20:02;2.42;;;1.52;;
44564;SDS011;30275;51.822;-0.326;2023-04-24T08:22:29;6.05;;;1.42;;
44564;SDS011;30275;51.822;-0.326;2023-04-24T08:24:55;6.35;;;2.00;;
44564;SDS011;30275;51.822;-0.326;2023-04-24T08:27:22;4.32;;;1.42;;
44564;SDS011;30275;51.822;-0.326;2023-04-24T08:29:52;4.93;;;1.90;;
44564;SDS011;30275;51.822;-0.326;2023-04-24T08:32:18;5.30;;;2.40;;
44564;SDS011;30275;51.822;-0.326;2023-04-24T08:34:44;4.07;;;2.60;;
44564;SDS011;30275;51.822;-0.326;2023-04-24T08:37:10;5.28;;;1.77;;
44564;SDS011;30275;51.822;-0.326;2023-04-24T08:39:36;3.85;;;1.33;;
44564;SDS011;30275;51.822;-0.326;2023-04-24T08:42:02;4.97;;;1.60;;
44564;SDS011;30275;51.822;-0.326;2023-04-24T08:44:32;3.50;;;1.50;;
44564;SDS011;30275;51.822;-0.326;2023-04-24T08:46:57;4.47;;;1.40;;
44564;SDS011;30275;51.822;-0.326;2023-04-24T08:49:23;4.88;;;1.52;;
44564;SDS011;30275;51.822;-0.326;2023-04-24T08:51:50;8.20;;;1.75;;
44564;SDS011;30275;51.822;-0.326;2023-04-24T08:54:17;4.20;;;2.05;;
44564;SDS011;30275;51.822;-0.326;2023-04-24T08:56:44;3.97;;;1.58;;
44564;SDS011;30275;51.822;-0.326;2023-04-24T08:59:10;3.45;;;1.48;;
44564;SDS011;30275;51.822;-0.326;2023-04-24T09:01:36;4.55;;;1.58;;
44564;SDS011;30275;51.822;-0.326;2023-04-24T09:04:03;4.43;;;1.70;;
44564;SDS011;30275;51.822;-0.326;2023-04-24T09:06:29;3.92;;;1.30;;
44564;SDS011;30275;51.822;-0.326;2023-04-24T09:08:57;5.28;;;2.83;;
44564;SDS011;30275;51.822;-0.326;2023-04-24T09:11:26;9.38;;;4.40;;
44564;SDS011;30275;51.822;-0.326;2023-04-24T09:13:52;5.28;;;3.10;;
44564;SDS011;30275;51.822;-0.326;2023-04-24T09:16:19;5.15;;;1.90;;
44564;SDS011;30275;51.822;-0.326;2023-04-24T09:18:45;4.22;;;1.92;;
44564;SDS011;30275;51.822;-0.326;2023-04-24T09:21:11;3.20;;;1.55;;
44564;SDS011;30275;51.822;-0.326;2023-04-24T09:23:37;5.05;;;1.70;;
44564;SDS011;30275;51.822;-0.326;2023-04-24T09:26:04;5.57;;;1.88;;
44564;SDS011;30275;51.822;-0.326;2023-04-24T09:28:36;3.72;;;1.92;;
44564;SDS011;30275;51.822;-0.326;2023-04-24T09:31:08;3.38;;;2.00;;
44564;SDS011;30275;51.822;-0.326;2023-04-24T09:33:39;4.70;;;2.20;;
44564;SDS011;30275;51.822;-0.326;2023-04-24T09:36:05;4.18;;;1.80;;
44564;SDS011;30275;51.822;-0.326;2023-04-24T09:38:37;3.95;;;1.63;;
44564;SDS011;30275;51.822;-0.326;2023-04-24T09:41:07;4.47;;;1.70;;
44564;SDS011;30275;51.822;-0.326;2023-04-24T09:43:38;5.95;;;2.22;;
44564;SDS011;30275;51.822;-0.326;2023-04-24T09:46:04;4.30;;;1.70;;
44564;SDS011;30275;51.822;-0.326;2023-04-24T09:48:40;5.00;;;1.60;;
44564;SDS011;30275;51.822;-0.326;2023-04-24T09:51:06;6.50;;;1.75;;
44564;SDS011;30275;51.822;-0.326;2023-04-24T09:53:35;4.97;;;2.05;;
44564;SDS011;30275;51.822;-0.326;2023-04-24T09:56:07;4.25;;;1.90;;
44564;SDS011;30275;51.822;-0.326;2023-04-24T09:58:34;6.63;;;2.33;;
44564;SDS011;30275;51.822;-0.326;2023-04-24T10:01:03;3.45;;;1.63;;
44564;SDS011;30275;51.822;-0.326;2023-04-24T10:03:29;5.43;;;1.70;;
44564;SDS011;30275;51.822;-0.326;2023-04-24T10:06:00;5.05;;;2.45;;
44564;SDS011;30275;51.822;-0.326;2023-04-24T10:08:26;4.30;;;1.70;;
44564;SDS011;30275;51.822;-0.326;2023-04-24T10:10:59;5.05;;;1.70;;
44564;SDS011;30275;51.822;-0.326;2023-04-24T10:13:25;6.28;;;2.35;;
44564;SDS011;30275;51.822;-0.326;2023-04-24T10:15:50;2.95;;;1.42;;
44564;SDS011;30275;51.822;-0.326;2023-04-24T10:18:16;5.18;;;1.88;;
44564;SDS011;30275;51.822;-0.326;2023-04-24T10:20:43;3.38;;;1.83;;
44564;SDS011;30275;51.822;-0.326;2023-04-24T10:23:10;5.30;;;2.83;;
44564;SDS011;30275;51.822;-0.326;2023-04-24T10:25:36;4.30;;;2.20;;
44564;SDS011;30275;51.822;-0.326;2023-04-24T10:28:03;4.30;;;2.20;;
44564;SDS011;30275;51.822;-0.326;2023-04-24T10:30:30;4.22;;;2.00;;
44564;SDS011;30275;51.822;-0.326;2023-04-24T10:33:00;4.78;;;2.25;;
44564;SDS011;30275;51.822;-0.326;2023-04-24T10:35:39;3.00;;;1.70;;
44564;SDS011;30275;51.822;-0.326;2023-04-24T10:38:13;5.45;;;2.10;;
44564;SDS011;30275;51.822;-0.326;2023-04-24T10:40:43;6.40;;;2.13;;
44564;SDS011;30275;51.822;-0.326;2023-04-24T10:43:09;5.32;;;1.92;;
44564;SDS011;30275;51.822;-0.326;2023-04-24T10:45:36;3.60;;;2.10;;
44564;SDS011;30275;51.822;-0.326;2023-04-24T10:48:07;4.88;;;1.83;;
44564;SDS011;30275;51.822;-0.326;2023-04-24T10:50:48;8.05;;;4.38;;
44564;SDS011;30275;51.822;-0.326;2023-04-24T10:53:20;3.67;;;2.10;;
44564;SDS011;30275;51.822;-0.326;2023-04-24T10:55:58;2.97;;;2.03;;
44564;SDS011;30275;51.822;-0.326;2023-04-24T11:01:03;3.88;;;2.38;;
44564;SDS011;30275;51.822;-0.326;2023-04-24T11:03:30;3.15;;;1.88;;
44564;SDS011;30275;51.822;-0.326;2023-04-24T11:09:06;4.32;;;1.80;;
44564;SDS011;30275;51.822;-0.326;2023-04-24T11:11:31;4.65;;;1.42;;
44564;SDS011;30275;51.822;-0.326;2023-04-24T11:18:51;3.55;;;1.50;;
44564;SDS011;30275;51.822;-0.326;2023-04-24T11:21:25;2.58;;;1.20;;
44564;SDS011;30275;51.822;-0.326;2023-04-24T11:23:51;4.13;;;1.42;;
44564;SDS011;30275;51.822;-0.326;2023-04-24T11:26:21;3.97;;;1.60;;
44564;SDS011;30275;51.822;-0.326;2023-04-24T11:28:49;3.33;;;1.70;;
44564;SDS011;30275;51.822;-0.326;2023-04-24T11:31:34;4.93;;;1.60;;
44564;SDS011;30275;51.822;-0.326;2023-04-24T11:34:10;4.75;;;1.80;;
44564;SDS011;30275;51.822;-0.326;2023-04-24T11:36:38;4.45;;;2.00;;
44564;SDS011;30275;51.822;-0.326;2023-04-24T11:39:05;2.97;;;2.00;;
44564;SDS011;30275;51.822;-0.326;2023-04-24T11:41:31;1.52;;;1.20;;
44564;SDS011;30275;51.822;-0.326;2023-04-24T11:43:58;4.63;;;1.90;;
44564;SDS011;30275;51.822;-0.326;2023-04-24T11:46:27;2.47;;;1.42;;
44564;SDS011;30275;51.822;-0.326;2023-04-24T11:48:54;2.97;;;1.25;;
44564;SDS011;30275;51.822;-0.326;2023-04-24T11:51:19;2.67;;;1.40;;
44564;SDS011;30275;51.822;-0.326;2023-04-24T11:53:45;8.50;;;2.05;;
44564;SDS011;30275;51.822;-0.326;2023-04-24T11:56:10;6.82;;;2.20;;
44564;SDS011;30275;51.822;-0.326;2023-04-24T11:58:37;4.82;;;2.10;;
44564;SDS011;30275;51.822;-0.326;2023-04-24T12:01:03;4.82;;;1.80;;
44564;SDS011;30275;51.822;-0.326;2023-04-24T12:03:30;2.60;;;1.65;;
44564;SDS011;30275;51.822;-0.326;2023-04-24T12:06:05;3.03;;;1.60;;
44564;SDS011;30275;51.822;-0.326;2023-04-24T12:08:35;2.13;;;1.50;;
44564;SDS011;30275;51.822;-0.326;2023-04-24T12:11:01;4.70;;;2.25;;
44564;SDS011;30275;51.822;-0.326;2023-04-24T12:13:28;5.18;;;2.30;;
44564;SDS011;30275;51.822;-0.326;2023-04-24T12:15:54;4.63;;;2.17;;
44564;SDS011;30275;51.822;-0.326;2023-04-24T12:18:24;4.18;;;2.08;;
44564;SDS011;30275;51.822;-0.326;2023-04-24T12:20:50;4.43;;;1.90;;
44564;SDS011;30275;51.822;-0.326;2023-04-24T12:23:16;2.72;;;1.67;;
44564;SDS011;30275;51.822;-0.326;2023-04-24T12:25:59;3.83;;;1.60;;
44564;SDS011;30275;51.822;-0.326;2023-04-24T12:28:34;4.13;;;2.42;;
44564;SDS011;30275;51.822;-0.326;2023-04-24T12:31:00;3.25;;;1.95;;
44564;SDS011;30275;51.822;-0.326;2023-04-24T12:33:27;3.95;;;1.80;;
44564;SDS011;30275;51.822;-0.326;2023-04-24T12:35:52;3.13;;;1.80;;
44564;SDS011;30275;51.822;-0.326;2023-04-24T12:38:21;4.88;;;1.83;;
44564;SDS011;30275;51.822;-0.326;2023-04-24T12:41:07;4.18;;;1.88;;
44564;SDS011;30275;51.822;-0.326;2023-04-24T12:43:33;4.13;;;1.90;;
44564;SDS011;30275;51.822;-0.326;2023-04-24T12:46:00;3.58;;;2.00;;
44564;SDS011;30275;51.822;-0.326;2023-04-24T12:48:26;4.00;;;1.75;;
44564;SDS011;30275;51.822;-0.326;2023-04-24T12:50:52;2.72;;;1.75;;
44564;SDS011;30275;51.822;-0.326;2023-04-24T12:53:17;3.58;;;1.88;;
44564;SDS011;30275;51.822;-0.326;2023-04-24T12:55:43;5.78;;;1.90;;
44564;SDS011;30275;51.822;-0.326;2023-04-24T12:58:10;3.55;;;1.85;;
44564;SDS011;30275;51.822;-0.326;2023-04-24T13:00:35;3.88;;;1.77;;
44564;SDS011;30275;51.822;-0.326;2023-04-24T13:03:02;5.15;;;2.22;;
44564;SDS011;30275;51.822;-0.326;2023-04-24T13:05:28;4.95;;;2.30;;
44564;SDS011;30275;51.822;-0.326;2023-04-24T13:07:53;4.25;;;2.00;;
44564;SDS011;30275;51.822;-0.326;2023-04-24T13:10:19;3.92;;;2.08;;
44564;SDS011;30275;51.822;-0.326;2023-04-24T13:12:45;7.45;;;2.25;;
44564;SDS011;30275;51.822;-0.326;2023-04-24T13:15:11;2.67;;;1.92;;
44564;SDS011;30275;51.822;-0.326;2023-04-24T13:17:37;5.15;;;2.28;;
44564;SDS011;30275;51.822;-0.326;2023-04-24T13:20:03;4.43;;;2.00;;
44564;SDS011;30275;51.822;-0.326;2023-04-24T13:22:30;5.20;;;2.00;;
44564;SDS011;30275;51.822;-0.326;2023-04-24T13:24:55;3.67;;;2.08;;
44564;SDS011;30275;51.822;-0.326;2023-04-24T13:27:22;3.75;;;1.95;;
44564;SDS011;30275;51.822;-0.326;2023-04-24T13:29:47;5.18;;;1.80;;
44564;SDS011;30275;51.822;-0.326;2023-04-24T13:32:13;3.80;;;2.22;;
44564;SDS011;30275;51.822;-0.326;2023-04-24T13:34:39;4.28;;;2.22;;
44564;SDS011;30275;51.822;-0.326;2023-04-24T13:37:05;6.15;;;2.70;;
44564;SDS011;30275;51.822;-0.326;2023-04-24T13:39:30;4.72;;;2.00;;
44564;SDS011;30275;51.822;-0.326;2023-04-24T13:41:57;4.13;;;1.80;;
44564;SDS011;30275;51.822;-0.326;2023-04-24T13:44:23;3.25;;;2.30;;
44564;SDS011;30275;51.822;-0.326;2023-04-24T13:46:51;5.60;;;2.25;;
44564;SDS011;30275;51.822;-0.326;2023-04-24T13:49:19;4.18;;;2.45;;
44564;SDS011;30275;51.822;-0.326;2023-04-24T13:51:45;4.35;;;1.98;;
44564;SDS011;30275;51.822;-0.326;2023-04-24T13:54:11;3.22;;;1.95;;
44564;SDS011;30275;51.822;-0.326;2023-04-24T13:56:37;4.47;;;2.22;;
44564;SDS011;30275;51.822;-0.326;2023-04-24T13:59:03;6.13;;;2.65;;
44564;SDS011;30275;51.822;-0.326;2023-04-24T14:01:29;4.03;;;2.08;;
44564;SDS011;30275;51.822;-0.326;2023-04-24T14:03:55;5.38;;;2.22;;
44564;SDS011;30275;51.822;-0.326;2023-04-24T14:06:21;3.70;;;2.40;;
44564;SDS011;30275;51.822;-0.326;2023-04-24T14:08:48;4.80;;;2.50;;
44564;SDS011;30275;51.822;-0.326;2023-04-24T14:11:15;4.45;;;2.50;;
44564;SDS011;30275;51.822;-0.326;2023-04-24T14:13:41;4.32;;;2.53;;
44564;SDS011;30275;51.822;-0.326;2023-04-24T14:16:07;5.85;;;2.67;;
44564;SDS011;30275;51.822;-0.326;2023-04-24T14:18:33;4.75;;;2.47;;
44564;SDS011;30275;51.822;-0.326;2023-04-24T14:20:58;5.82;;;2.65;;
44564;SDS011;30275;51.822;-0.326;2023-04-24T14:23:26;4.80;;;2.55;;
44564;SDS011;30275;51.822;-0.326;2023-04-24T14:25:51;4.45;;;2.22;;
44564;SDS011;30275;51.822;-0.326;2023-04-24T14:28:18;6.88;;;2.65;;
44564;SDS011;30275;51.822;-0.326;2023-04-24T14:30:45;4.93;;;2.35;;
44564;SDS011;30275;51.822;-0.326;2023-04-24T14:33:11;3.25;;;1.92;;
44564;SDS011;30275;51.822;-0.326;2023-04-24T14:35:37;8.07;;;2.55;;